sensor_id;sensor_type;location;lat;lon;timestamp;temperature;humidity
12911;DHT22;6523;49.758;6.120;2023-05-23T00:01:02;14.50;99.90
12911;DHT22;6523;49.758;6.120;2023-05-23T00:03:27;14.60;99.90
12911;DHT22;6523;49.758;6.120;2023-05-23T00:05:55;14.60;99.90
12911;DHT22;6523;49.758;6.120;2023-05-23T00:08:21;14.60;99.90
12911;DHT22;6523;49.758;6.120;2023-05-23T00:10:47;14.60;99.90
12911;DHT22;6523;49.758;6.120;2023-05-23T00:13:12;14.60;99.90
12911;DHT22;6523;49.758;6.120;2023-05-23T00:15:39;14.60;99.90
12911;DHT22;6523;49.758;6.120;2023-05-23T00:18:06;14.60;99.90
12911;DHT22;6523;49.758;6.120;2023-05-23T00:20:33;14.60;99.90
12911;DHT22;6523;49.758;6.120;2023-05-23T00:23:00;14.50;99.90
12911;DHT22;6523;49.758;6.120;2023-05-23T00:25:28;14.40;99.90
12911;DHT22;6523;49.758;6.120;2023-05-23T00:28:02;14.40;99.90
12911;DHT22;6523;49.758;6.120;2023-05-23T00:30:29;14.30;99.90
12911;DHT22;6523;49.758;6.120;2023-05-23T00:32:55;14.40;99.90
12911;DHT22;6523;49.758;6.120;2023-05-23T00:35:21;14.40;99.90
12911;DHT22;6523;49.758;6.120;2023-05-23T00:37:47;14.40;99.90
12911;DHT22;6523;49.758;6.120;2023-05-23T00:40:14;14.30;99.90
12911;DHT22;6523;49.758;6.120;2023-05-23T00:42:40;14.30;99.90
12911;DHT22;6523;49.758;6.120;2023-05-23T00:45:06;14.30;99.90
12911;DHT22;6523;49.758;6.120;2023-05-23T00:47:32;14.30;99.90
12911;DHT22;6523;49.758;6.120;2023-05-23T00:49:58;13.80;99.90
12911;DHT22;6523;49.758;6.120;2023-05-23T00:52:24;13.60;99.90
12911;DHT22;6523;49.758;6.120;2023-05-23T00:54:49;13.70;99.90
12911;DHT22;6523;49.758;6.120;2023-05-23T00:57:15;13.70;99.90
12911;DHT22;6523;49.758;6.120;2023-05-23T00:59:41;13.60;99.90
12911;DHT22;6523;49.758;6.120;2023-05-23T01:02:07;13.80;99.90
12911;DHT22;6523;49.758;6.120;2023-05-23T01:04:33;13.90;99.90
12911;DHT22;6523;49.758;6.120;2023-05-23T01:07:00;13.90;99.90
12911;DHT22;6523;49.758;6.120;2023-05-23T01:09:27;13.90;99.90
12911;DHT22;6523;49.758;6.120;2023-05-23T01:12:09;13.50;99.90
12911;DHT22;6523;49.758;6.120;2023-05-23T01:15:07;13.30;99.90
12911;DHT22;6523;49.758;6.120;2023-05-23T01:17:58;13.10;99.90
12911;DHT22;6523;49.758;6.120;2023-05-23T01:20:29;13.00;99.90
12911;DHT22;6523;49.758;6.120;2023-05-23T01:25:57;13.10;99.90
12911;DHT22;6523;49.758;6.120;2023-05-23T01:28:31;13.00;99.90
12911;DHT22;6523;49.758;6.120;2023-05-23T01:30:57;13.20;99.90
12911;DHT22;6523;49.758;6.120;2023-05-23T01:33:26;13.30;99.90
12911;DHT22;6523;49.758;6.120;2023-05-23T01:35:53;13.40;99.90
12911;DHT22;6523;49.758;6.120;2023-05-23T01:38:19;13.40;99.90
12911;DHT22;6523;49.758;6.120;2023-05-23T01:40:44;13.40;99.90
12911;DHT22;6523;49.758;6.120;2023-05-23T01:43:10;13.50;99.90
12911;DHT22;6523;49.758;6.120;2023-05-23T01:45:36;13.50;99.90
12911;DHT22;6523;49.758;6.120;2023-05-23T01:48:02;13.60;99.90
12911;DHT22;6523;49.758;6.120;2023-05-23T01:50:28;13.60;99.90
12911;DHT22;6523;49.758;6.120;2023-05-23T01:52:55;13.60;99.90
12911;DHT22;6523;49.758;6.120;2023-05-23T01:55:22;13.60;99.90
12911;DHT22;6523;49.758;6.120;2023-05-23T01:57:54;13.60;99.90
12911;DHT22;6523;49.758;6.120;2023-05-23T02:00:20;13.50;99.90
12911;DHT22;6523;49.758;6.120;2023-05-23T02:02:46;13.30;99.90
12911;DHT22;6523;49.758;6.120;2023-05-23T02:05:12;13.30;99.90
12911;DHT22;6523;49.758;6.120;2023-05-23T02:07:37;13.10;99.90
12911;DHT22;6523;49.758;6.120;2023-05-23T02:10:05;13.10;99.90
12911;DHT22;6523;49.758;6.120;2023-05-23T02:12:30;12.90;99.90
12911;DHT22;6523;49.758;6.120;2023-05-23T02:14:56;13.00;99.90
12911;DHT22;6523;49.758;6.120;2023-05-23T02:17:21;12.80;99.90
12911;DHT22;6523;49.758;6.120;2023-05-23T02:19:48;12.80;99.90
12911;DHT22;6523;49.758;6.120;2023-05-23T02:22:14;12.90;99.90
12911;DHT22;6523;49.758;6.120;2023-05-23T02:24:40;13.10;99.90
12911;DHT22;6523;49.758;6.120;2023-05-23T02:27:05;13.00;99.90
12911;DHT22;6523;49.758;6.120;2023-05-23T02:29:31;12.70;99.90
12911;DHT22;6523;49.758;6.120;2023-05-23T02:31:57;12.70;99.90
12911;DHT22;6523;49.758;6.120;2023-05-23T02:34:22;12.60;99.90
12911;DHT22;6523;49.758;6.120;2023-05-23T02:36:48;12.60;99.90
12911;DHT22;6523;49.758;6.120;2023-05-23T02:39:13;12.40;99.90
12911;DHT22;6523;49.758;6.120;2023-05-23T02:41:39;12.60;99.90
12911;DHT22;6523;49.758;6.120;2023-05-23T02:44:05;12.60;99.90
12911;DHT22;6523;49.758;6.120;2023-05-23T02:46:30;12.40;99.90
12911;DHT22;6523;49.758;6.120;2023-05-23T02:48:56;12.60;99.90
12911;DHT22;6523;49.758;6.120;2023-05-23T02:51:21;12.60;99.90
12911;DHT22;6523;49.758;6.120;2023-05-23T02:53:47;12.50;99.90
12911;DHT22;6523;49.758;6.120;2023-05-23T02:56:12;12.50;99.90
12911;DHT22;6523;49.758;6.120;2023-05-23T02:58:40;12.10;99.90
12911;DHT22;6523;49.758;6.120;2023-05-23T03:01:06;12.40;99.90
12911;DHT22;6523;49.758;6.120;2023-05-23T03:03:33;12.40;99.90
12911;DHT22;6523;49.758;6.120;2023-05-23T03:05:59;12.20;99.90
12911;DHT22;6523;49.758;6.120;2023-05-23T03:08:24;12.20;99.90
12911;DHT22;6523;49.758;6.120;2023-05-23T03:10:50;12.00;99.90
12911;DHT22;6523;49.758;6.120;2023-05-23T03:13:16;11.90;99.90
12911;DHT22;6523;49.758;6.120;2023-05-23T03:15:42;11.80;99.90
12911;DHT22;6523;49.758;6.120;2023-05-23T03:18:07;11.90;99.90
12911;DHT22;6523;49.758;6.120;2023-05-23T03:20:33;12.00;99.90
12911;DHT22;6523;49.758;6.120;2023-05-23T03:22:59;12.10;99.90
12911;DHT22;6523;49.758;6.120;2023-05-23T03:25:24;12.10;99.90
12911;DHT22;6523;49.758;6.120;2023-05-23T03:27:50;12.20;99.90
12911;DHT22;6523;49.758;6.120;2023-05-23T03:30:16;12.20;99.90
12911;DHT22;6523;49.758;6.120;2023-05-23T03:32:41;12.40;99.90
12911;DHT22;6523;49.758;6.120;2023-05-23T03:35:07;12.40;99.90
12911;DHT22;6523;49.758;6.120;2023-05-23T03:37:33;12.40;99.90
12911;DHT22;6523;49.758;6.120;2023-05-23T03:39:58;12.20;99.90
12911;DHT22;6523;49.758;6.120;2023-05-23T03:42:24;12.30;99.90
12911;DHT22;6523;49.758;6.120;2023-05-23T03:44:50;12.50;99.90
12911;DHT22;6523;49.758;6.120;2023-05-23T03:47:15;12.60;99.90
12911;DHT22;6523;49.758;6.120;2023-05-23T03:49:41;12.60;99.90
12911;DHT22;6523;49.758;6.120;2023-05-23T03:52:06;12.70;99.90
12911;DHT22;6523;49.758;6.120;2023-05-23T03:54:32;12.80;99.90
12911;DHT22;6523;49.758;6.120;2023-05-23T03:56:57;12.80;99.90
12911;DHT22;6523;49.758;6.120;2023-05-23T03:59:23;12.90;99.90
12911;DHT22;6523;49.758;6.120;2023-05-23T04:01:48;13.10;99.90
12911;DHT22;6523;49.758;6.120;2023-05-23T04:04:14;13.20;99.90
12911;DHT22;6523;49.758;6.120;2023-05-23T04:06:41;13.30;99.90
12911;DHT22;6523;49.758;6.120;2023-05-23T04:09:07;13.50;99.90
12911;DHT22;6523;49.758;6.120;2023-05-23T04:11:33;13.50;99.90
12911;DHT22;6523;49.758;6.120;2023-05-23T04:13:58;13.60;99.90
12911;DHT22;6523;49.758;6.120;2023-05-23T04:16:24;13.60;99.90
12911;DHT22;6523;49.758;6.120;2023-05-23T04:18:50;13.70;99.90
12911;DHT22;6523;49.758;6.120;2023-05-23T04:21:16;13.70;99.90
12911;DHT22;6523;49.758;6.120;2023-05-23T04:23:41;13.70;99.90
12911;DHT22;6523;49.758;6.120;2023-05-23T04:26:07;13.70;99.90
12911;DHT22;6523;49.758;6.120;2023-05-23T04:28:34;13.80;99.90
12911;DHT22;6523;49.758;6.120;2023-05-23T04:31:00;13.80;99.90
12911;DHT22;6523;49.758;6.120;2023-05-23T04:33:28;13.90;99.90
12911;DHT22;6523;49.758;6.120;2023-05-23T04:35:54;13.90;99.90
12911;DHT22;6523;49.758;6.120;2023-05-23T04:38:20;13.90;99.90
12911;DHT22;6523;49.758;6.120;2023-05-23T04:40:47;13.90;99.90
12911;DHT22;6523;49.758;6.120;2023-05-23T04:43:13;13.90;99.90
12911;DHT22;6523;49.758;6.120;2023-05-23T04:45:40;13.90;99.90
12911;DHT22;6523;49.758;6.120;2023-05-23T04:48:06;13.90;99.90
12911;DHT22;6523;49.758;6.120;2023-05-23T04:50:32;13.80;99.90
12911;DHT22;6523;49.758;6.120;2023-05-23T04:53:00;13.90;99.90
12911;DHT22;6523;49.758;6.120;2023-05-23T04:55:25;13.90;99.90
12911;DHT22;6523;49.758;6.120;2023-05-23T04:57:51;13.80;99.90
12911;DHT22;6523;49.758;6.120;2023-05-23T05:00:17;13.90;99.90
12911;DHT22;6523;49.758;6.120;2023-05-23T05:02:42;13.90;99.90
12911;DHT22;6523;49.758;6.120;2023-05-23T05:05:08;14.00;99.90
12911;DHT22;6523;49.758;6.120;2023-05-23T05:07:34;14.00;99.90
12911;DHT22;6523;49.758;6.120;2023-05-23T05:10:00;14.00;99.90
12911;DHT22;6523;49.758;6.120;2023-05-23T05:12:25;14.00;99.90
12911;DHT22;6523;49.758;6.120;2023-05-23T05:14:51;14.00;99.90
12911;DHT22;6523;49.758;6.120;2023-05-23T05:17:17;13.90;99.90
12911;DHT22;6523;49.758;6.120;2023-05-23T05:19:44;13.90;99.90
12911;DHT22;6523;49.758;6.120;2023-05-23T05:22:10;13.80;99.90
12911;DHT22;6523;49.758;6.120;2023-05-23T05:24:36;13.80;99.90
12911;DHT22;6523;49.758;6.120;2023-05-23T05:27:02;13.80;99.90
12911;DHT22;6523;49.758;6.120;2023-05-23T05:29:28;13.80;99.90
12911;DHT22;6523;49.758;6.120;2023-05-23T05:31:53;13.80;99.90
12911;DHT22;6523;49.758;6.120;2023-05-23T05:34:19;13.70;99.90
12911;DHT22;6523;49.758;6.120;2023-05-23T05:36:45;13.70;99.90
12911;DHT22;6523;49.758;6.120;2023-05-23T05:39:13;13.70;99.90
12911;DHT22;6523;49.758;6.120;2023-05-23T05:41:39;13.70;99.90
12911;DHT22;6523;49.758;6.120;2023-05-23T05:44:06;13.70;99.90
12911;DHT22;6523;49.758;6.120;2023-05-23T05:46:31;13.70;99.90
12911;DHT22;6523;49.758;6.120;2023-05-23T05:48:57;13.70;99.90
12911;DHT22;6523;49.758;6.120;2023-05-23T05:51:22;13.70;99.90
12911;DHT22;6523;49.758;6.120;2023-05-23T05:53:48;13.70;99.90
12911;DHT22;6523;49.758;6.120;2023-05-23T05:56:14;13.70;99.90
12911;DHT22;6523;49.758;6.120;2023-05-23T05:58:40;13.80;99.90
12911;DHT22;6523;49.758;6.120;2023-05-23T06:01:05;13.80;99.90
12911;DHT22;6523;49.758;6.120;2023-05-23T06:03:32;13.70;99.90
12911;DHT22;6523;49.758;6.120;2023-05-23T06:05:58;13.80;99.90
12911;DHT22;6523;49.758;6.120;2023-05-23T06:08:24;13.80;99.90
12911;DHT22;6523;49.758;6.120;2023-05-23T06:10:49;13.80;99.90
12911;DHT22;6523;49.758;6.120;2023-05-23T06:13:15;13.80;99.90
12911;DHT22;6523;49.758;6.120;2023-05-23T06:15:42;13.80;99.90
12911;DHT22;6523;49.758;6.120;2023-05-23T06:18:07;13.90;99.90
12911;DHT22;6523;49.758;6.120;2023-05-23T06:20:33;13.90;99.90
12911;DHT22;6523;49.758;6.120;2023-05-23T06:22:58;13.90;99.90
12911;DHT22;6523;49.758;6.120;2023-05-23T06:25:24;13.90;99.90
12911;DHT22;6523;49.758;6.120;2023-05-23T06:27:50;13.90;99.90
12911;DHT22;6523;49.758;6.120;2023-05-23T06:30:16;13.90;99.90
12911;DHT22;6523;49.758;6.120;2023-05-23T06:32:41;14.00;99.90
12911;DHT22;6523;49.758;6.120;2023-05-23T06:35:07;14.00;99.90
12911;DHT22;6523;49.758;6.120;2023-05-23T06:37:32;14.00;99.90
12911;DHT22;6523;49.758;6.120;2023-05-23T06:39:59;14.00;99.90
12911;DHT22;6523;49.758;6.120;2023-05-23T06:42:25;14.00;99.90
12911;DHT22;6523;49.758;6.120;2023-05-23T06:44:51;14.00;99.90
12911;DHT22;6523;49.758;6.120;2023-05-23T06:47:16;13.90;99.90
12911;DHT22;6523;49.758;6.120;2023-05-23T06:49:42;13.90;99.90
12911;DHT22;6523;49.758;6.120;2023-05-23T06:52:08;14.00;99.90
12911;DHT22;6523;49.758;6.120;2023-05-23T06:54:33;14.00;99.90
12911;DHT22;6523;49.758;6.120;2023-05-23T06:56:59;14.10;99.90
12911;DHT22;6523;49.758;6.120;2023-05-23T06:59:24;14.20;99.90
12911;DHT22;6523;49.758;6.120;2023-05-23T07:01:50;14.20;99.90
12911;DHT22;6523;49.758;6.120;2023-05-23T07:04:15;14.20;99.90
12911;DHT22;6523;49.758;6.120;2023-05-23T07:06:41;14.30;99.90
12911;DHT22;6523;49.758;6.120;2023-05-23T07:09:06;14.30;99.90
12911;DHT22;6523;49.758;6.120;2023-05-23T07:11:32;14.40;99.90
12911;DHT22;6523;49.758;6.120;2023-05-23T07:13:58;14.40;99.90
12911;DHT22;6523;49.758;6.120;2023-05-23T07:16:23;14.50;99.90
12911;DHT22;6523;49.758;6.120;2023-05-23T07:18:49;14.50;99.90
12911;DHT22;6523;49.758;6.120;2023-05-23T07:21:14;14.70;99.90
12911;DHT22;6523;49.758;6.120;2023-05-23T07:23:40;14.60;99.90
12911;DHT22;6523;49.758;6.120;2023-05-23T07:26:06;14.60;99.90
12911;DHT22;6523;49.758;6.120;2023-05-23T07:28:34;14.80;99.90
12911;DHT22;6523;49.758;6.120;2023-05-23T07:30:59;15.00;99.90
12911;DHT22;6523;49.758;6.120;2023-05-23T07:33:25;15.20;99.90
12911;DHT22;6523;49.758;6.120;2023-05-23T07:35:51;15.60;99.90
12911;DHT22;6523;49.758;6.120;2023-05-23T07:38:16;16.30;99.90
12911;DHT22;6523;49.758;6.120;2023-05-23T07:40:42;16.20;99.90
12911;DHT22;6523;49.758;6.120;2023-05-23T07:43:07;15.90;99.90
12911;DHT22;6523;49.758;6.120;2023-05-23T07:45:33;16.20;99.90
12911;DHT22;6523;49.758;6.120;2023-05-23T07:47:58;16.40;99.90
12911;DHT22;6523;49.758;6.120;2023-05-23T07:50:24;16.40;99.90
12911;DHT22;6523;49.758;6.120;2023-05-23T07:52:52;16.40;99.90
12911;DHT22;6523;49.758;6.120;2023-05-23T07:55:17;16.60;99.90
12911;DHT22;6523;49.758;6.120;2023-05-23T07:57:43;16.80;99.90
12911;DHT22;6523;49.758;6.120;2023-05-23T08:00:09;16.60;99.90
12911;DHT22;6523;49.758;6.120;2023-05-23T08:02:34;16.30;99.90
12911;DHT22;6523;49.758;6.120;2023-05-23T08:05:01;16.00;99.90
12911;DHT22;6523;49.758;6.120;2023-05-23T08:07:26;15.80;99.90
12911;DHT22;6523;49.758;6.120;2023-05-23T08:09:52;15.70;99.90
12911;DHT22;6523;49.758;6.120;2023-05-23T08:12:17;15.80;99.90
12911;DHT22;6523;49.758;6.120;2023-05-23T08:14:43;16.10;99.90
12911;DHT22;6523;49.758;6.120;2023-05-23T08:17:10;16.50;99.90
12911;DHT22;6523;49.758;6.120;2023-05-23T08:19:36;16.90;99.90
12911;DHT22;6523;49.758;6.120;2023-05-23T08:22:02;17.00;99.90
12911;DHT22;6523;49.758;6.120;2023-05-23T08:24:29;17.00;99.90
12911;DHT22;6523;49.758;6.120;2023-05-23T08:26:55;17.00;99.90
12911;DHT22;6523;49.758;6.120;2023-05-23T08:29:20;16.90;99.90
12911;DHT22;6523;49.758;6.120;2023-05-23T08:31:46;17.10;99.90
12911;DHT22;6523;49.758;6.120;2023-05-23T08:34:12;17.20;99.90
12911;DHT22;6523;49.758;6.120;2023-05-23T08:36:39;17.10;99.90
12911;DHT22;6523;49.758;6.120;2023-05-23T08:39:04;17.10;99.90
12911;DHT22;6523;49.758;6.120;2023-05-23T08:41:30;17.10;99.90
12911;DHT22;6523;49.758;6.120;2023-05-23T08:43:56;17.20;99.90
12911;DHT22;6523;49.758;6.120;2023-05-23T08:46:22;17.20;99.90
12911;DHT22;6523;49.758;6.120;2023-05-23T08:48:52;17.30;99.90
12911;DHT22;6523;49.758;6.120;2023-05-23T08:51:22;17.40;99.90
12911;DHT22;6523;49.758;6.120;2023-05-23T08:53:49;17.20;99.90
12911;DHT22;6523;49.758;6.120;2023-05-23T08:56:15;16.90;99.90
12911;DHT22;6523;49.758;6.120;2023-05-23T08:58:42;16.50;99.90
12911;DHT22;6523;49.758;6.120;2023-05-23T09:01:08;16.50;99.90
12911;DHT22;6523;49.758;6.120;2023-05-23T09:03:35;16.70;99.90
12911;DHT22;6523;49.758;6.120;2023-05-23T09:06:02;17.00;99.90
12911;DHT22;6523;49.758;6.120;2023-05-23T09:08:28;17.10;99.90
12911;DHT22;6523;49.758;6.120;2023-05-23T09:10:54;16.70;99.90
12911;DHT22;6523;49.758;6.120;2023-05-23T09:13:20;16.60;99.90
12911;DHT22;6523;49.758;6.120;2023-05-23T09:16:01;16.70;99.90
12911;DHT22;6523;49.758;6.120;2023-05-23T09:18:33;16.60;99.90
12911;DHT22;6523;49.758;6.120;2023-05-23T09:20:59;16.80;99.90
12911;DHT22;6523;49.758;6.120;2023-05-23T09:23:29;16.60;99.90
12911;DHT22;6523;49.758;6.120;2023-05-23T09:25:54;16.50;99.90
12911;DHT22;6523;49.758;6.120;2023-05-23T09:28:20;16.50;99.90
12911;DHT22;6523;49.758;6.120;2023-05-23T09:30:45;16.50;99.90
12911;DHT22;6523;49.758;6.120;2023-05-23T09:33:13;16.60;99.90
12911;DHT22;6523;49.758;6.120;2023-05-23T09:35:43;16.70;99.90
12911;DHT22;6523;49.758;6.120;2023-05-23T09:38:09;16.90;99.90
12911;DHT22;6523;49.758;6.120;2023-05-23T09:40:35;16.90;99.90
12911;DHT22;6523;49.758;6.120;2023-05-23T09:43:02;16.90;99.90
12911;DHT22;6523;49.758;6.120;2023-05-23T09:45:32;17.10;99.90
12911;DHT22;6523;49.758;6.120;2023-05-23T09:47:58;17.20;99.90
12911;DHT22;6523;49.758;6.120;2023-05-23T09:50:29;17.30;99.90
12911;DHT22;6523;49.758;6.120;2023-05-23T09:52:56;17.50;99.90
12911;DHT22;6523;49.758;6.120;2023-05-23T09:55:21;17.50;99.90
12911;DHT22;6523;49.758;6.120;2023-05-23T09:57:51;17.40;99.90
12911;DHT22;6523;49.758;6.120;2023-05-23T10:00:17;17.10;99.90
12911;DHT22;6523;49.758;6.120;2023-05-23T10:08:33;16.40;99.90
12911;DHT22;6523;49.758;6.120;2023-05-23T10:13:26;16.00;99.90
12911;DHT22;6523;49.758;6.120;2023-05-23T10:15:59;16.20;99.90
12911;DHT22;6523;49.758;6.120;2023-05-23T10:18:28;16.20;99.90
12911;DHT22;6523;49.758;6.120;2023-05-23T10:20:58;16.10;99.90
12911;DHT22;6523;49.758;6.120;2023-05-23T10:23:26;16.10;99.90
12911;DHT22;6523;49.758;6.120;2023-05-23T10:25:52;16.10;99.90
12911;DHT22;6523;49.758;6.120;2023-05-23T10:28:19;16.10;99.90
12911;DHT22;6523;49.758;6.120;2023-05-23T10:30:45;16.20;99.90
12911;DHT22;6523;49.758;6.120;2023-05-23T10:33:11;16.10;99.90
12911;DHT22;6523;49.758;6.120;2023-05-23T10:38:51;16.30;99.90
12911;DHT22;6523;49.758;6.120;2023-05-23T10:41:33;16.60;99.90
12911;DHT22;6523;49.758;6.120;2023-05-23T10:44:11;16.70;99.90
12911;DHT22;6523;49.758;6.120;2023-05-23T10:46:51;16.70;99.90
12911;DHT22;6523;49.758;6.120;2023-05-23T10:49:18;16.80;99.90
12911;DHT22;6523;49.758;6.120;2023-05-23T10:51:49;16.70;99.90
12911;DHT22;6523;49.758;6.120;2023-05-23T10:54:17;16.90;99.90
12911;DHT22;6523;49.758;6.120;2023-05-23T10:56:44;16.90;99.90
12911;DHT22;6523;49.758;6.120;2023-05-23T10:59:19;16.80;99.90
12911;DHT22;6523;49.758;6.120;2023-05-23T11:01:45;16.40;99.90
12911;DHT22;6523;49.758;6.120;2023-05-23T11:04:11;16.20;99.90
12911;DHT22;6523;49.758;6.120;2023-05-23T11:06:41;16.00;99.90
12911;DHT22;6523;49.758;6.120;2023-05-23T11:09:16;16.10;99.90
12911;DHT22;6523;49.758;6.120;2023-05-23T11:12:02;15.90;99.90
12911;DHT22;6523;49.758;6.120;2023-05-23T11:16:58;15.80;99.90
12911;DHT22;6523;49.758;6.120;2023-05-23T11:19:26;15.80;99.90
12911;DHT22;6523;49.758;6.120;2023-05-23T11:22:02;15.70;99.90
12911;DHT22;6523;49.758;6.120;2023-05-23T11:24:50;15.70;99.90
12911;DHT22;6523;49.758;6.120;2023-05-23T11:27:39;15.80;99.90
12911;DHT22;6523;49.758;6.120;2023-05-23T11:30:07;15.80;99.90
12911;DHT22;6523;49.758;6.120;2023-05-23T11:32:33;15.90;99.90
12911;DHT22;6523;49.758;6.120;2023-05-23T11:35:07;16.20;99.90
12911;DHT22;6523;49.758;6.120;2023-05-23T11:37:33;16.50;99.90
12911;DHT22;6523;49.758;6.120;2023-05-23T11:40:23;16.70;99.90
12911;DHT22;6523;49.758;6.120;2023-05-23T11:42:45;16.90;99.90
12911;DHT22;6523;49.758;6.120;2023-05-23T11:45:11;17.30;99.90
12911;DHT22;6523;49.758;6.120;2023-05-23T11:47:42;17.20;99.90
12911;DHT22;6523;49.758;6.120;2023-05-23T11:50:08;17.30;99.90
12911;DHT22;6523;49.758;6.120;2023-05-23T11:52:34;17.60;99.90
12911;DHT22;6523;49.758;6.120;2023-05-23T11:55:00;17.70;99.90
12911;DHT22;6523;49.758;6.120;2023-05-23T11:57:26;17.40;99.90
12911;DHT22;6523;49.758;6.120;2023-05-23T11:59:53;17.10;99.90
12911;DHT22;6523;49.758;6.120;2023-05-23T12:02:20;16.80;99.90
12911;DHT22;6523;49.758;6.120;2023-05-23T12:04:46;16.80;99.90
12911;DHT22;6523;49.758;6.120;2023-05-23T12:07:12;16.60;99.90
12911;DHT22;6523;49.758;6.120;2023-05-23T12:09:42;16.60;99.90
12911;DHT22;6523;49.758;6.120;2023-05-23T12:12:08;16.60;99.90
12911;DHT22;6523;49.758;6.120;2023-05-23T12:14:34;16.40;99.90
12911;DHT22;6523;49.758;6.120;2023-05-23T12:17:00;16.30;99.90
12911;DHT22;6523;49.758;6.120;2023-05-23T12:19:26;16.10;99.90
12911;DHT22;6523;49.758;6.120;2023-05-23T12:21:51;15.90;99.90
12911;DHT22;6523;49.758;6.120;2023-05-23T12:24:21;15.70;99.90
12911;DHT22;6523;49.758;6.120;2023-05-23T12:26:53;15.50;99.90
12911;DHT22;6523;49.758;6.120;2023-05-23T12:29:33;15.40;99.90
12911;DHT22;6523;49.758;6.120;2023-05-23T12:32:06;15.40;99.90
12911;DHT22;6523;49.758;6.120;2023-05-23T12:34:32;15.50;99.90
12911;DHT22;6523;49.758;6.120;2023-05-23T12:36:59;15.50;99.90
12911;DHT22;6523;49.758;6.120;2023-05-23T12:39:27;15.60;99.90
12911;DHT22;6523;49.758;6.120;2023-05-23T12:41:53;15.60;99.90
12911;DHT22;6523;49.758;6.120;2023-05-23T12:44:23;15.70;99.90
12911;DHT22;6523;49.758;6.120;2023-05-23T12:46:48;15.80;99.90
12911;DHT22;6523;49.758;6.120;2023-05-23T12:49:14;16.00;99.90
12911;DHT22;6523;49.758;6.120;2023-05-23T12:51:40;16.20;99.90
12911;DHT22;6523;49.758;6.120;2023-05-23T12:54:07;16.40;99.90
12911;DHT22;6523;49.758;6.120;2023-05-23T12:56:33;16.50;99.90
12911;DHT22;6523;49.758;6.120;2023-05-23T12:58:58;16.50;99.90
12911;DHT22;6523;49.758;6.120;2023-05-23T13:01:26;16.50;99.90
12911;DHT22;6523;49.758;6.120;2023-05-23T13:08:43;16.60;99.90
12911;DHT22;6523;49.758;6.120;2023-05-23T13:11:09;16.60;99.90
12911;DHT22;6523;49.758;6.120;2023-05-23T13:13:35;16.60;99.90
12911;DHT22;6523;49.758;6.120;2023-05-23T13:16:00;16.80;99.90
12911;DHT22;6523;49.758;6.120;2023-05-23T13:18:26;16.90;99.90
12911;DHT22;6523;49.758;6.120;2023-05-23T13:20:51;16.80;99.90
12911;DHT22;6523;49.758;6.120;2023-05-23T13:33:05;16.90;99.90
12911;DHT22;6523;49.758;6.120;2023-05-23T13:42:52;17.00;99.90
12911;DHT22;6523;49.758;6.120;2023-05-23T13:45:18;17.10;99.90
12911;DHT22;6523;49.758;6.120;2023-05-23T13:57:32;16.60;99.90
12911;DHT22;6523;49.758;6.120;2023-05-23T13:59:57;16.80;99.90
12911;DHT22;6523;49.758;6.120;2023-05-23T14:02:23;16.90;99.90
12911;DHT22;6523;49.758;6.120;2023-05-23T14:04:48;16.90;99.90
12911;DHT22;6523;49.758;6.120;2023-05-23T14:07:15;16.90;99.90
12911;DHT22;6523;49.758;6.120;2023-05-23T14:09:41;16.80;99.90
12911;DHT22;6523;49.758;6.120;2023-05-23T14:12:06;16.80;99.90
12911;DHT22;6523;49.758;6.120;2023-05-23T14:14:32;16.80;99.90
12911;DHT22;6523;49.758;6.120;2023-05-23T14:16:57;16.90;99.90
12911;DHT22;6523;49.758;6.120;2023-05-23T14:19:23;16.90;99.90
12911;DHT22;6523;49.758;6.120;2023-05-23T14:21:49;16.80;99.90
12911;DHT22;6523;49.758;6.120;2023-05-23T14:24:14;17.00;99.90
12911;DHT22;6523;49.758;6.120;2023-05-23T14:26:40;17.40;99.90
12911;DHT22;6523;49.758;6.120;2023-05-23T14:29:05;17.50;99.90
12911;DHT22;6523;49.758;6.120;2023-05-23T14:31:31;17.70;99.90
12911;DHT22;6523;49.758;6.120;2023-05-23T14:33:56;17.90;99.90
12911;DHT22;6523;49.758;6.120;2023-05-23T14:36:23;17.80;99.90
12911;DHT22;6523;49.758;6.120;2023-05-23T14:38:48;17.80;99.90
12911;DHT22;6523;49.758;6.120;2023-05-23T14:41:15;17.80;99.90
12911;DHT22;6523;49.758;6.120;2023-05-23T14:43:42;17.70;99.90
12911;DHT22;6523;49.758;6.120;2023-05-23T14:46:08;17.50;99.90
12911;DHT22;6523;49.758;6.120;2023-05-23T14:48:33;17.70;99.90
12911;DHT22;6523;49.758;6.120;2023-05-23T14:50:59;17.80;99.90
12911;DHT22;6523;49.758;6.120;2023-05-23T14:53:26;17.40;99.90
12911;DHT22;6523;49.758;6.120;2023-05-23T14:55:52;17.30;99.90
12911;DHT22;6523;49.758;6.120;2023-05-23T14:58:18;17.40;99.90
12911;DHT22;6523;49.758;6.120;2023-05-23T15:00:44;17.30;99.90
12911;DHT22;6523;49.758;6.120;2023-05-23T15:03:12;17.20;99.90
12911;DHT22;6523;49.758;6.120;2023-05-23T15:05:38;17.10;99.90
12911;DHT22;6523;49.758;6.120;2023-05-23T15:08:04;17.50;99.90
12911;DHT22;6523;49.758;6.120;2023-05-23T15:10:29;17.50;99.90
12911;DHT22;6523;49.758;6.120;2023-05-23T15:12:55;18.10;99.90
12911;DHT22;6523;49.758;6.120;2023-05-23T15:15:20;18.20;99.90
12911;DHT22;6523;49.758;6.120;2023-05-23T15:17:48;18.10;99.90
12911;DHT22;6523;49.758;6.120;2023-05-23T15:20:15;17.60;99.90
12911;DHT22;6523;49.758;6.120;2023-05-23T15:22:41;17.20;99.90
12911;DHT22;6523;49.758;6.120;2023-05-23T15:25:07;16.90;99.90
12911;DHT22;6523;49.758;6.120;2023-05-23T15:27:33;16.70;99.90
12911;DHT22;6523;49.758;6.120;2023-05-23T15:29:59;16.90;99.90
12911;DHT22;6523;49.758;6.120;2023-05-23T15:32:25;16.90;99.90
12911;DHT22;6523;49.758;6.120;2023-05-23T15:34:50;17.00;99.90
12911;DHT22;6523;49.758;6.120;2023-05-23T15:37:16;17.10;99.90
12911;DHT22;6523;49.758;6.120;2023-05-23T15:39:42;17.20;99.90
12911;DHT22;6523;49.758;6.120;2023-05-23T15:42:08;17.20;99.90
12911;DHT22;6523;49.758;6.120;2023-05-23T15:44:33;17.00;99.90
12911;DHT22;6523;49.758;6.120;2023-05-23T15:46:59;16.90;99.90
12911;DHT22;6523;49.758;6.120;2023-05-23T15:49:24;17.00;99.90
12911;DHT22;6523;49.758;6.120;2023-05-23T15:51:50;16.90;99.90
12911;DHT22;6523;49.758;6.120;2023-05-23T15:54:15;16.80;99.90
12911;DHT22;6523;49.758;6.120;2023-05-23T15:56:41;16.70;99.90
12911;DHT22;6523;49.758;6.120;2023-05-23T15:59:07;16.50;99.90
12911;DHT22;6523;49.758;6.120;2023-05-23T16:01:33;16.60;99.90
12911;DHT22;6523;49.758;6.120;2023-05-23T16:03:59;16.50;99.90
12911;DHT22;6523;49.758;6.120;2023-05-23T16:06:25;16.70;99.90
12911;DHT22;6523;49.758;6.120;2023-05-23T16:08:52;16.50;99.90
12911;DHT22;6523;49.758;6.120;2023-05-23T16:11:18;16.70;99.90
12911;DHT22;6523;49.758;6.120;2023-05-23T16:13:44;16.70;99.90
12911;DHT22;6523;49.758;6.120;2023-05-23T16:16:10;16.70;99.90
12911;DHT22;6523;49.758;6.120;2023-05-23T16:18:35;16.70;99.90
12911;DHT22;6523;49.758;6.120;2023-05-23T16:21:01;16.60;99.90
12911;DHT22;6523;49.758;6.120;2023-05-23T16:23:26;16.70;99.90
12911;DHT22;6523;49.758;6.120;2023-05-23T16:25:52;16.80;99.90
12911;DHT22;6523;49.758;6.120;2023-05-23T16:28:19;16.80;99.90
12911;DHT22;6523;49.758;6.120;2023-05-23T16:30:45;16.70;99.90